BOS weather

General Edward Lawrence Logan International Airport
Boston, Massachusetts, United States

Public forecast

Using degrees Fahrenheit for public forecast. Weather courtesy of forecast.io.

Current aviation weather report (METAR) for General Edward Lawrence Logan International Airport

Retrieved 2020/04/07 08:54 UTC (50 minutes ago):

KBOS 070854Z 29010KT 10SM BKN110 OVC250 08/M08 A2989 RMK AO2 SLP119 T00831083 55005

Aviation forecast (TAF) for General Edward Lawrence Logan International Airport

Forecast is more than 6 hours old.

Retrieved 2020-04-07 00:22 UTC (9 hours ago):

TAF KBOS 062320Z 0700/0806 28007KT P6SM FEW250 FM071600 29010G17KT P6SM FEW060 FM072100 27007KT P6SM SCT200 FM072300 15006KT P6SM SCT200 FM080300 12004KT P6SM SCT200